Time;durP1;ratioP1;P1;durP2;ratioP2;P2;SDS_P1;SDS_P2;PMS_P1;PMS_P2;Temp;Humidity;BMP_temperature;BMP_pressure;BME280_temperature;BME280_humidity;BME280_pressure;Samples;Min_cycle;Max_cycle;Signal;HPM_P1;HPM_P2
2022/03/17 00:00:29;;;;;;;6.33;3.90;;;-0.50;99.90;;;;;;4931786;29;20404;-90
2022/03/17 00:02:57;;;;;;;8.30;4.32;;;-0.40;99.90;;;;;;4931871;29;20400;-89
2022/03/17 00:05:25;;;;;;;8.55;4.00;;;-0.50;99.90;;;;;;4915946;29;20451;-89
2022/03/17 00:07:52;;;;;;;7.30;4.20;;;-0.50;99.90;;;;;;4900301;29;20904;-88
2022/03/17 00:10:20;;;;;;;7.63;3.63;;;-0.50;99.90;;;;;;4900276;29;20395;-89
2022/03/17 00:12:48;;;;;;;8.35;3.70;;;-0.50;99.90;;;;;;4931560;29;20415;-89
2022/03/17 00:15:16;;;;;;;8.38;4.00;;;-0.50;99.90;;;;;;4915941;29;20411;-89
2022/03/17 00:17:46;;;;;;;6.43;4.00;;;-0.50;99.90;;;;;;4916378;29;20411;-89
2022/03/17 00:20:14;;;;;;;8.13;4.10;;;-0.60;99.90;;;;;;4915403;29;20776;-89
2022/03/17 00:22:41;;;;;;;7.95;4.15;;;-0.60;99.90;;;;;;4899876;29;20820;-89
2022/03/17 00:25:09;;;;;;;7.65;4.10;;;-0.60;99.90;;;;;;4915534;29;20973;-90
2022/03/17 00:27:37;;;;;;;7.50;4.10;;;-0.60;99.90;;;;;;4915303;29;20416;-90
2022/03/17 00:30:05;;;;;;;6.78;3.92;;;-0.70;99.90;;;;;;4899947;29;20407;-89
2022/03/17 00:32:33;;;;;;;7.45;4.20;;;-0.70;99.90;;;;;;4931120;29;20400;-90
2022/03/17 00:37:48;;;;;;;7.47;4.13;;;-0.80;99.90;;;;;;4916534;29;20399;-89
2022/03/17 00:40:15;;;;;;;9.40;4.43;;;-0.80;99.90;;;;;;4915421;29;20495;-89
2022/03/17 00:42:44;;;;;;;11.65;4.45;;;-0.80;99.90;;;;;;4930758;29;20467;-90
2022/03/17 00:45:12;;;;;;;7.88;3.97;;;-0.90;99.90;;;;;;4915338;29;20459;-89
2022/03/17 00:47:40;;;;;;;12.07;4.50;;;-0.90;99.90;;;;;;4915181;29;20432;-89
2022/03/17 00:50:10;;;;;;;8.95;4.05;;;-0.90;99.90;;;;;;4915381;29;20977;-89
2022/03/17 00:52:37;;;;;;;9.70;4.33;;;-0.90;99.90;;;;;;4899694;29;20400;-89
2022/03/17 00:55:06;;;;;;;8.02;4.05;;;-0.80;99.90;;;;;;4915279;29;20415;-90
2022/03/17 00:57:39;;;;;;;9.20;4.30;;;-0.90;99.90;;;;;;4916112;29;20874;-89
2022/03/17 01:00:20;;;;;;;9.00;4.22;;;-0.90;99.90;;;;;;4915207;29;20408;-90
2022/03/17 01:02:56;;;;;;;9.05;4.00;;;-0.90;99.90;;;;;;4916242;29;20399;-90
2022/03/17 01:05:24;;;;;;;6.90;3.55;;;-0.90;99.90;;;;;;4915011;29;20455;-89
2022/03/17 01:07:53;;;;;;;8.13;3.65;;;-1.00;99.90;;;;;;4915131;29;20433;-89
2022/03/17 01:10:21;;;;;;;8.73;3.70;;;-1.00;99.90;;;;;;4915087;29;20404;-89
2022/03/17 01:12:50;;;;;;;8.27;4.38;;;-1.00;99.90;;;;;;4899208;29;20392;-90
2022/03/17 01:15:19;;;;;;;7.65;3.72;;;-1.00;99.90;;;;;;4899186;29;20422;-89
2022/03/17 01:17:48;;;;;;;7.32;3.88;;;-1.00;99.90;;;;;;4930962;29;20467;-89
2022/03/17 01:20:16;;;;;;;7.32;3.80;;;-1.10;99.90;;;;;;4933325;29;20471;-89
2022/03/17 01:22:44;;;;;;;8.85;4.05;;;-1.10;99.90;;;;;;4933636;29;20911;-89
2022/03/17 01:25:11;;;;;;;8.57;4.07;;;-1.20;99.90;;;;;;4933768;29;20410;-90
2022/03/17 01:27:39;;;;;;;7.88;4.25;;;-1.20;99.90;;;;;;4933784;29;20417;-90
2022/03/17 01:30:10;;;;;;;7.88;4.07;;;-1.20;99.90;;;;;;4933796;29;20401;-89
2022/03/17 01:32:38;;;;;;;9.77;4.40;;;-1.20;99.90;;;;;;4917899;29;20781;-90
2022/03/17 01:35:08;;;;;;;7.00;3.95;;;-1.20;99.90;;;;;;4917817;29;20493;-89
2022/03/17 01:37:36;;;;;;;8.02;4.18;;;-1.30;99.90;;;;;;4917812;29;20429;-90
2022/03/17 01:40:04;;;;;;;8.32;4.20;;;-1.30;99.90;;;;;;4917968;29;20398;-90
2022/03/17 01:42:32;;;;;;;7.43;3.75;;;-1.30;99.90;;;;;;4949403;29;20397;-90
2022/03/17 01:44:59;;;;;;;7.93;3.85;;;-1.30;99.90;;;;;;4917809;29;20402;-90
2022/03/17 01:47:27;;;;;;;8.38;4.18;;;-1.30;99.90;;;;;;4933707;29;20402;-90
2022/03/17 01:50:16;;;;;;;8.07;3.83;;;-1.30;99.90;;;;;;4917753;29;20892;-89
2022/03/17 01:52:44;;;;;;;6.60;3.53;;;-1.30;99.90;;;;;;4933538;29;20409;-90
2022/03/17 01:55:14;;;;;;;6.45;3.60;;;-1.40;99.90;;;;;;4918079;29;20412;-89
2022/03/17 01:57:42;;;;;;;7.40;4.33;;;-1.40;99.90;;;;;;4933618;29;20404;-89
2022/03/17 02:00:16;;;;;;;8.13;3.83;;;-1.40;99.90;;;;;;4917761;29;20398;-89
2022/03/17 02:02:45;;;;;;;7.07;4.00;;;-1.40;99.90;;;;;;4917632;29;20410;-90
2022/03/17 02:05:13;;;;;;;7.13;3.90;;;-1.50;99.90;;;;;;4917715;29;20410;-90
2022/03/17 02:08:15;;;;;;;7.85;3.90;;;-1.50;99.90;;;;;;4917836;29;20496;-90
2022/03/17 02:13:27;;;;;;;7.95;4.07;;;-1.50;99.90;;;;;;4910850;29;20820;-90
2022/03/17 02:15:55;;;;;;;8.70;4.40;;;-1.50;99.90;;;;;;4937277;29;20448;-90
2022/03/17 02:18:23;;;;;;;9.00;4.30;;;-1.60;99.90;;;;;;4920958;29;20464;-90
2022/03/17 02:20:51;;;;;;;8.85;4.13;;;-1.60;99.90;;;;;;4920972;29;20406;-90
2022/03/17 02:26:05;;;;;;;6.47;3.60;;;-1.60;99.90;;;;;;4936707;29;20413;-90
2022/03/17 02:28:33;;;;;;;7.70;3.75;;;-1.70;99.90;;;;;;4936851;29;20410;-89
2022/03/17 02:31:02;;;;;;;8.95;4.10;;;-1.70;99.90;;;;;;4921104;29;20453;-90
2022/03/17 02:33:29;;;;;;;6.95;3.97;;;-1.70;99.90;;;;;;4921248;29;20410;-90
2022/03/17 02:35:57;;;;;;;7.73;4.00;;;-1.70;99.90;;;;;;4921189;29;20421;-90
2022/03/17 02:38:24;;;;;;;9.45;4.40;;;-1.70;99.90;;;;;;4920935;29;20490;-90
2022/03/17 02:40:52;;;;;;;8.27;4.10;;;-1.80;99.90;;;;;;4936807;29;20414;-91
2022/03/17 02:43:20;;;;;;;8.13;4.10;;;-1.80;99.90;;;;;;4936854;29;20987;-90
2022/03/17 02:45:47;;;;;;;8.73;4.20;;;-1.80;99.90;;;;;;4921608;29;20912;-90
2022/03/17 02:48:16;;;;;;;8.95;4.78;;;-1.80;99.90;;;;;;4920854;29;20402;-90
2022/03/17 02:50:45;;;;;;;8.05;4.38;;;-1.80;99.90;;;;;;4920831;29;20459;-89
2022/03/17 02:53:13;;;;;;;10.25;5.10;;;-1.90;99.90;;;;;;4920728;29;20465;-90
2022/03/17 02:55:43;;;;;;;9.38;4.88;;;-1.90;99.90;;;;;;4936289;29;20469;-89
2022/03/17 02:58:12;;;;;;;9.03;4.70;;;-1.90;99.90;;;;;;4937772;29;20744;-90
2022/03/17 03:00:39;;;;;;;11.18;4.85;;;-1.90;99.90;;;;;;4920460;29;20430;-89
2022/03/17 03:03:07;;;;;;;9.95;5.28;;;-1.90;99.90;;;;;;4936192;29;20394;-90
2022/03/17 03:05:35;;;;;;;11.05;5.43;;;-1.90;99.90;;;;;;4936142;29;20406;-91
2022/03/17 03:08:04;;;;;;;9.85;4.93;;;-2.00;99.90;;;;;;4937186;29;20877;-89
2022/03/17 03:10:31;;;;;;;9.07;4.95;;;-2.10;99.90;;;;;;4920104;29;20394;-90
2022/03/17 03:12:59;;;;;;;8.82;4.95;;;-2.10;99.90;;;;;;4920316;29;20414;-89
2022/03/17 03:15:29;;;;;;;9.75;5.25;;;-2.10;99.90;;;;;;4920333;29;20416;-90
2022/03/17 03:18:00;;;;;;;8.32;4.53;;;-2.10;99.90;;;;;;4935777;29;20927;-90
2022/03/17 03:20:27;;;;;;;9.67;5.20;;;-2.10;99.90;;;;;;4913698;29;20415;-90
2022/03/17 03:22:55;;;;;;;12.77;5.00;;;-2.10;99.90;;;;;;4916529;29;20392;-89
2022/03/17 03:25:23;;;;;;;9.10;4.60;;;-2.10;99.90;;;;;;4916712;29;20415;-89
2022/03/17 03:27:51;;;;;;;9.00;5.17;;;-2.10;99.90;;;;;;4928801;29;20457;-89
2022/03/17 03:30:20;;;;;;;8.82;4.75;;;-2.10;99.90;;;;;;4900835;29;20415;-90
2022/03/17 03:32:49;;;;;;;8.67;4.90;;;-2.10;99.90;;;;;;4916353;29;20405;-89
2022/03/17 03:38:03;;;;;;;8.70;4.75;;;-2.10;99.90;;;;;;4936717;29;20401;-89
2022/03/17 03:40:30;;;;;;;8.37;4.37;;;-2.20;99.90;;;;;;4951315;29;20894;-89
2022/03/17 03:42:58;;;;;;;8.55;4.10;;;-2.30;99.90;;;;;;4935705;29;20399;-89
2022/03/17 03:45:26;;;;;;;9.95;4.43;;;-2.30;99.90;;;;;;4951030;29;20429;-89
2022/03/17 03:47:54;;;;;;;8.10;3.80;;;-2.30;99.90;;;;;;4942606;29;20410;-89
2022/03/17 03:50:21;;;;;;;8.88;4.05;;;-2.20;99.90;;;;;;4916172;29;20463;-89
2022/03/17 03:52:49;;;;;;;7.90;3.70;;;-2.30;99.90;;;;;;4931786;29;20965;-89
2022/03/17 03:55:16;;;;;;;8.25;4.13;;;-2.30;99.90;;;;;;4916257;29;20467;-90
2022/03/17 03:57:46;;;;;;;6.53;3.58;;;-2.30;99.90;;;;;;4931957;29;20432;-89
2022/03/17 04:03:15;;;;;;;8.23;3.80;;;-2.40;99.90;;;;;;4904030;29;20402;-90
2022/03/17 04:05:44;;;;;;;7.18;3.50;;;-2.50;99.90;;;;;;4935004;29;20626;-90
2022/03/17 04:08:12;;;;;;;8.13;3.40;;;-2.50;99.90;;;;;;4919507;29;20473;-89
2022/03/17 04:10:39;;;;;;;7.72;3.92;;;-2.40;99.90;;;;;;4918893;29;20488;-89
2022/03/17 04:13:07;;;;;;;8.30;3.60;;;-2.40;99.90;;;;;;4935354;29;20955;-90
2022/03/17 04:15:34;;;;;;;7.60;3.72;;;-2.50;99.90;;;;;;4935072;29;20796;-90
2022/03/17 04:18:02;;;;;;;8.07;3.65;;;-2.50;99.90;;;;;;4919211;29;20742;-89
2022/03/17 04:20:29;;;;;;;7.00;3.43;;;-2.50;99.90;;;;;;4918974;29;20405;-89
2022/03/17 04:22:57;;;;;;;6.70;3.80;;;-2.50;99.90;;;;;;4934576;29;20461;-89
2022/03/17 04:25:25;;;;;;;6.53;3.30;;;-2.60;99.90;;;;;;4934263;29;20461;-88
2022/03/17 04:27:52;;;;;;;8.23;3.70;;;-2.60;99.90;;;;;;4918028;29;20415;-88
2022/03/17 04:30:20;;;;;;;7.00;3.53;;;-2.60;99.90;;;;;;4915298;29;20467;-88
2022/03/17 04:32:47;;;;;;;7.80;3.97;;;-2.60;99.90;;;;;;4915368;29;20395;-88
2022/03/17 04:35:15;;;;;;;7.53;3.65;;;-2.60;99.90;;;;;;4915441;29;20467;-89
2022/03/17 04:37:43;;;;;;;6.82;3.28;;;-2.60;99.90;;;;;;4915463;29;20403;-89
2022/03/17 04:40:11;;;;;;;7.17;3.20;;;-2.70;99.90;;;;;;4915673;29;20400;-89
2022/03/17 04:42:39;;;;;;;7.10;3.40;;;-2.80;99.90;;;;;;4915481;29;20407;-89
2022/03/17 04:45:06;;;;;;;7.38;3.50;;;-2.70;99.90;;;;;;4899903;29;20455;-89
2022/03/17 04:47:34;;;;;;;6.53;3.30;;;-2.70;99.90;;;;;;4899875;29;20423;-89
2022/03/17 04:50:01;;;;;;;7.93;3.80;;;-2.70;99.90;;;;;;4899991;29;20411;-89
2022/03/17 04:55:15;;;;;;;6.10;3.50;;;-2.80;99.90;;;;;;4931085;29;20418;-89
2022/03/17 04:57:42;;;;;;;5.35;2.90;;;-2.80;99.90;;;;;;4899523;29;20439;-89
2022/03/17 05:00:10;;;;;;;7.30;3.50;;;-2.80;99.90;;;;;;4899567;29;20444;-89
2022/03/17 05:02:38;;;;;;;6.53;3.50;;;-2.80;99.90;;;;;;4929607;29;20402;-89
2022/03/17 05:05:06;;;;;;;7.47;3.28;;;-2.80;99.90;;;;;;4934011;29;20418;-89
2022/03/17 05:07:34;;;;;;;7.60;3.53;;;-2.80;99.90;;;;;;4917029;29;20422;-90
2022/03/17 05:10:02;;;;;;;6.55;3.05;;;-2.80;99.90;;;;;;4918353;29;20418;-89
2022/03/17 05:12:29;;;;;;;6.67;3.00;;;-2.90;99.90;;;;;;4915056;29;20415;-89
2022/03/17 05:14:56;;;;;;;7.50;3.35;;;-2.90;99.90;;;;;;4914758;29;20494;-88
2022/03/17 05:17:24;;;;;;;5.07;3.00;;;-2.90;99.90;;;;;;4914986;29;20443;-88
2022/03/17 05:19:51;;;;;;;6.67;3.30;;;-2.90;99.90;;;;;;4923974;29;20431;-89
2022/03/17 05:22:19;;;;;;;6.50;3.30;;;-2.90;99.90;;;;;;4899234;29;20408;-90
2022/03/17 05:24:46;;;;;;;7.32;3.50;;;-2.90;99.90;;;;;;4949516;29;20402;-88
2022/03/17 05:27:14;;;;;;;6.53;3.00;;;-2.90;99.90;;;;;;4950317;28;20417;-90
2022/03/17 05:29:43;;;;;;;6.63;3.38;;;-3.00;99.90;;;;;;4949957;29;20512;-89
2022/03/17 05:32:10;;;;;;;6.25;3.10;;;-3.00;99.90;;;;;;4949681;29;20449;-90
2022/03/17 05:34:38;;;;;;;6.63;3.15;;;-3.00;99.90;;;;;;4937893;29;20482;-88
2022/03/17 05:37:05;;;;;;;5.23;3.00;;;-3.00;99.90;;;;;;4908353;29;20906;-89
2022/03/17 05:39:33;;;;;;;6.40;3.17;;;-3.10;99.90;;;;;;4914949;29;20403;-89
2022/03/17 05:42:00;;;;;;;6.45;3.15;;;-3.10;99.90;;;;;;4914842;29;20443;-90
2022/03/17 05:44:31;;;;;;;6.97;2.97;;;-3.10;99.90;;;;;;4925446;29;20430;-90
2022/03/17 05:46:59;;;;;;;6.43;3.13;;;-3.00;99.90;;;;;;4926680;29;20442;-90
2022/03/17 05:49:28;;;;;;;5.30;2.92;;;-3.10;99.90;;;;;;4937673;29;20490;-89
2022/03/17 05:51:55;;;;;;;5.88;2.97;;;-3.10;99.90;;;;;;4903420;29;20395;-89
2022/03/17 05:54:23;;;;;;;6.00;3.00;;;-3.10;99.90;;;;;;4918615;29;20930;-88
2022/03/17 05:56:50;;;;;;;7.22;3.20;;;-3.00;99.90;;;;;;4913263;29;20471;-89
2022/03/17 05:59:18;;;;;;;7.28;3.40;;;-3.10;99.90;;;;;;4922279;29;20488;-90
2022/03/17 06:01:45;;;;;;;7.97;3.65;;;-3.10;99.90;;;;;;4937747;29;20390;-91
2022/03/17 06:04:33;;;;;;;25.52;4.47;;;-3.00;99.90;;;;;;4925477;29;20737;-91
2022/03/17 06:07:00;;;;;;;5.88;3.20;;;-2.90;99.90;;;;;;4937571;29;20896;-90
2022/03/17 06:09:28;;;;;;;5.60;3.30;;;-3.00;99.90;;;;;;4969844;28;20406;-92
2022/03/17 06:11:57;;;;;;;7.07;3.05;;;-3.00;99.90;;;;;;4953346;29;20896;-92
2022/03/17 06:14:26;;;;;;;6.25;3.15;;;-2.90;99.90;;;;;;4946624;29;20911;-92
2022/03/17 06:16:54;;;;;;;18.45;4.40;;;-2.90;99.90;;;;;;4938282;29;20410;-91
2022/03/17 06:19:22;;;;;;;6.20;3.00;;;-2.80;99.90;;;;;;4937422;29;20404;-91
2022/03/17 06:21:50;;;;;;;5.63;3.28;;;-2.70;99.90;;;;;;4937448;29;20445;-92
2022/03/17 06:24:18;;;;;;;7.35;2.88;;;-2.70;99.90;;;;;;4937312;29;20488;-92
2022/03/17 06:26:45;;;;;;;7.90;3.53;;;-2.70;99.90;;;;;;4921537;29;20465;-91
2022/03/17 06:29:13;;;;;;;5.60;2.80;;;-2.70;99.90;;;;;;4915071;29;20414;-91
2022/03/17 06:31:40;;;;;;;6.60;3.20;;;-2.60;99.90;;;;;;4917825;29;20421;-92
2022/03/17 06:34:08;;;;;;;6.65;3.08;;;-2.60;99.90;;;;;;4914673;29;20432;-91
2022/03/17 06:36:35;;;;;;;7.33;3.40;;;-2.50;99.90;;;;;;4933553;29;20447;-91
2022/03/17 06:39:03;;;;;;;6.15;3.30;;;-2.50;99.90;;;;;;4917959;29;20415;-92
2022/03/17 06:41:30;;;;;;;8.25;3.50;;;-2.40;99.90;;;;;;4902268;29;20471;-92
2022/03/17 06:43:58;;;;;;;7.10;3.20;;;-2.30;99.90;;;;;;4902733;29;20404;-93
2022/03/17 06:46:25;;;;;;;7.22;3.00;;;-2.30;99.90;;;;;;4916679;29;20414;-91
2022/03/17 06:48:53;;;;;;;6.67;3.00;;;-2.20;99.90;;;;;;4968818;28;20984;-92
2022/03/17 06:51:20;;;;;;;6.93;2.55;;;-2.20;99.90;;;;;;4918648;29;20420;-91
2022/03/17 06:53:48;;;;;;;8.45;3.60;;;-2.10;99.90;;;;;;4936140;29;20905;-92
2022/03/17 06:56:15;;;;;;;5.70;2.60;;;-2.10;99.90;;;;;;4920616;29;20566;-91
2022/03/17 06:58:43;;;;;;;6.65;3.10;;;-2.10;99.90;;;;;;4920953;29;20497;-91
2022/03/17 07:01:11;;;;;;;7.53;2.90;;;-2.00;99.90;;;;;;4937010;29;20397;-91
2022/03/17 07:03:39;;;;;;;6.40;2.80;;;-1.90;99.90;;;;;;4921630;29;20426;-91
2022/03/17 07:06:06;;;;;;;6.95;3.03;;;-1.90;99.90;;;;;;4902756;29;20443;-90
2022/03/17 07:08:34;;;;;;;8.02;3.28;;;-1.80;99.90;;;;;;4917686;29;20420;-89
2022/03/17 07:11:01;;;;;;;6.33;3.27;;;-1.70;99.90;;;;;;4917446;29;20428;-90
2022/03/17 07:13:29;;;;;;;7.40;3.92;;;-1.70;99.90;;;;;;4917351;29;20406;-91
2022/03/17 07:15:56;;;;;;;8.63;3.75;;;-1.70;99.90;;;;;;4921662;29;20907;-91
2022/03/17 07:18:24;;;;;;;7.38;3.53;;;-1.60;99.90;;;;;;4908651;29;21051;-91
2022/03/17 07:20:53;;;;;;;7.97;3.72;;;-1.60;99.90;;;;;;4936211;29;20501;-91
2022/03/17 07:23:21;;;;;;;5.68;3.22;;;-1.50;99.90;;;;;;4936630;29;20420;-91
2022/03/17 07:25:48;;;;;;;5.93;3.20;;;-1.50;99.90;;;;;;4935932;29;20413;-91
2022/03/17 07:28:18;;;;;;;5.70;2.65;;;-1.50;99.90;;;;;;4920546;29;20435;-91
2022/03/17 07:30:45;;;;;;;5.97;2.70;;;-1.40;99.90;;;;;;4935439;29;20418;-90
2022/03/17 07:33:13;;;;;;;6.93;2.43;;;-1.40;99.90;;;;;;4936047;29;20877;-91
2022/03/17 07:35:41;;;;;;;5.13;2.72;;;-1.30;99.90;;;;;;4920453;29;20426;-91
2022/03/17 07:38:08;;;;;;;6.22;2.88;;;-1.30;99.90;;;;;;4935233;29;20806;-90
2022/03/17 07:40:35;;;;;;;5.60;2.53;;;-1.30;99.90;;;;;;4927472;29;20395;-91
2022/03/17 07:43:04;;;;;;;4.53;2.20;;;-1.20;99.90;;;;;;4916801;29;20625;-91
2022/03/17 07:45:31;;;;;;;4.75;2.20;;;-1.10;99.90;;;;;;4926078;29;20473;-91
2022/03/17 07:48:17;;;;;;;4.47;2.20;;;-1.20;99.90;;;;;;4937029;29;20542;-91
2022/03/17 07:51:00;;;;;;;5.30;2.17;;;-1.10;99.90;;;;;;4921299;29;20505;-92
2022/03/17 07:53:28;;;;;;;5.50;2.40;;;-1.10;99.90;;;;;;4929589;29;20897;-90
2022/03/17 07:55:57;;;;;;;6.07;2.60;;;-1.00;99.90;;;;;;4919662;29;20521;-91
2022/03/17 07:58:26;;;;;;;6.97;3.25;;;-1.00;99.90;;;;;;4935520;29;20406;-91
2022/03/17 08:00:55;;;;;;;5.15;2.60;;;-0.90;99.90;;;;;;4935251;29;20923;-93
2022/03/17 08:03:23;;;;;;;6.85;3.00;;;-0.90;99.90;;;;;;4951420;29;20905;-91
2022/03/17 08:05:51;;;;;;;5.43;2.83;;;-0.80;99.90;;;;;;4935453;29;20401;-92
2022/03/17 08:08:20;;;;;;;5.50;2.83;;;-0.80;99.90;;;;;;4950254;28;20421;-91
2022/03/17 08:10:47;;;;;;;6.50;2.80;;;-0.80;99.90;;;;;;4919641;29;20400;-91
2022/03/17 08:13:15;;;;;;;5.82;2.60;;;-0.60;99.90;;;;;;4918928;29;20916;-92
2022/03/17 08:15:43;;;;;;;5.60;2.35;;;-0.60;99.90;;;;;;4931137;29;20410;-91
2022/03/17 08:18:11;;;;;;;4.88;2.38;;;-0.50;99.90;;;;;;4930881;29;20784;-92
2022/03/17 08:20:39;;;;;;;6.13;2.47;;;-0.50;99.90;;;;;;4931969;29;20404;-90
2022/03/17 08:23:08;;;;;;;5.83;2.43;;;-0.50;99.90;;;;;;4916324;29;20403;-91
2022/03/17 08:25:36;;;;;;;5.10;2.22;;;-0.40;99.90;;;;;;4914188;29;20417;-91
2022/03/17 08:28:05;;;;;;;5.68;2.60;;;-0.40;99.90;;;;;;4914884;29;20413;-91
2022/03/17 08:30:33;;;;;;;5.75;2.60;;;-0.30;99.90;;;;;;4918949;29;20996;-91
2022/03/17 08:33:00;;;;;;;4.72;2.33;;;-0.20;99.90;;;;;;4933708;29;20422;-91
2022/03/17 08:35:28;;;;;;;6.10;2.50;;;-0.10;99.90;;;;;;4926550;29;20406;-91
2022/03/17 08:37:57;;;;;;;7.03;2.63;;;-0.20;99.90;;;;;;4922466;29;20505;-91
2022/03/17 08:40:24;;;;;;;4.80;2.17;;;-0.10;99.90;;;;;;4934105;29;20773;-90
2022/03/17 08:42:52;;;;;;;5.50;2.10;;;0.10;99.90;;;;;;4927757;29;20964;-92
2022/03/17 08:50:54;;;;;;;4.15;1.70;;;0.10;99.90;;;;;;4916068;29;20415;-91
2022/03/17 08:53:22;;;;;;;3.78;1.60;;;0.20;99.90;;;;;;4915814;29;20399;-91
2022/03/17 08:55:49;;;;;;;4.45;1.80;;;0.20;99.90;;;;;;4919067;29;20418;-92
2022/03/17 08:58:17;;;;;;;6.05;2.00;;;0.30;99.90;;;;;;4924932;29;20439;-90
2022/03/17 09:00:45;;;;;;;3.10;1.67;;;0.30;99.90;;;;;;4918870;29;20406;-92
2022/03/17 09:03:13;;;;;;;2.73;1.50;;;0.30;99.90;;;;;;4935159;29;20457;-92
2022/03/17 09:05:41;;;;;;;3.67;1.60;;;0.30;99.90;;;;;;4934270;29;20402;-92
2022/03/17 09:08:09;;;;;;;3.50;1.75;;;0.30;99.90;;;;;;4913999;29;20775;-91
2022/03/17 09:10:41;;;;;;;2.92;1.63;;;0.40;99.90;;;;;;4932095;29;20431;-91
2022/03/17 09:13:09;;;;;;;2.95;1.55;;;0.40;99.90;;;;;;4915325;29;20411;-92
2022/03/17 09:15:39;;;;;;;3.60;1.50;;;0.50;99.90;;;;;;4916869;29;20419;-92
2022/03/17 09:18:09;;;;;;;4.10;1.63;;;0.60;99.90;;;;;;4914774;29;20483;-93
2022/03/17 09:20:37;;;;;;;4.18;1.75;;;0.70;99.90;;;;;;4915655;29;20404;-92
2022/03/17 09:23:05;;;;;;;5.23;1.70;;;0.90;99.90;;;;;;4915395;29;20779;-92
2022/03/17 09:25:34;;;;;;;5.70;1.77;;;0.90;99.90;;;;;;4915629;29;20410;-92
2022/03/17 09:28:03;;;;;;;4.07;1.50;;;1.00;99.90;;;;;;4915220;29;20447;-92
2022/03/17 09:30:32;;;;;;;4.30;1.60;;;1.10;99.90;;;;;;4917762;29;20409;-91
2022/03/17 09:33:01;;;;;;;2.60;1.38;;;1.00;99.90;;;;;;4914389;29;20419;-92
2022/03/17 09:35:29;;;;;;;2.88;1.30;;;0.90;99.90;;;;;;4915374;29;20412;-91
2022/03/17 09:37:57;;;;;;;3.10;1.35;;;0.90;99.90;;;;;;4947826;29;20457;-93
2022/03/17 09:40:25;;;;;;;3.80;1.70;;;1.00;99.90;;;;;;4933990;29;20417;-91
2022/03/17 09:43:18;;;;;;;3.25;1.33;;;1.10;99.90;;;;;;4949849;29;20414;-92
2022/03/17 09:45:42;;;;;;;3.78;1.35;;;1.10;99.90;;;;;;4933875;29;20417;-93
2022/03/17 09:48:11;;;;;;;2.63;1.17;;;1.20;99.90;;;;;;4966194;28;20398;-91
2022/03/17 09:50:40;;;;;;;2.70;1.48;;;1.20;99.90;;;;;;4942272;29;20429;-92
2022/03/17 09:53:08;;;;;;;2.28;1.27;;;1.30;99.90;;;;;;4949723;29;20430;-92
2022/03/17 09:55:36;;;;;;;2.53;1.30;;;1.40;99.90;;;;;;4949448;29;20421;-91
2022/03/17 09:58:06;;;;;;;3.47;1.30;;;1.40;99.90;;;;;;4950009;29;20434;-92
2022/03/17 10:00:49;;;;;;;3.33;1.00;;;1.30;99.90;;;;;;4965842;28;20494;-92
2022/03/17 10:03:28;;;;;;;4.05;1.48;;;1.30;99.90;;;;;;4966498;28;20426;-93
2022/03/17 10:05:57;;;;;;;3.00;1.27;;;1.40;99.90;;;;;;4966069;28;20402;-92
2022/03/17 10:08:26;;;;;;;3.35;1.20;;;1.50;99.90;;;;;;4932955;29;20421;-92
2022/03/17 10:10:54;;;;;;;3.00;1.40;;;1.60;99.90;;;;;;4916508;29;20481;-92
2022/03/17 10:13:28;;;;;;;3.08;1.20;;;1.60;99.90;;;;;;4914177;29;20775;-92
2022/03/17 10:16:19;;;;;;;2.88;1.30;;;1.60;99.90;;;;;;4914998;29;20423;-92
2022/03/17 10:19:01;;;;;;;3.38;1.30;;;1.70;99.90;;;;;;4898905;29;20834;-92
2022/03/17 10:21:29;;;;;;;2.20;1.15;;;1.90;99.90;;;;;;4918283;29;21017;-91
2022/03/17 10:24:03;;;;;;;2.72;1.20;;;1.90;99.90;;;;;;4914129;29;20400;-93
2022/03/17 10:26:54;;;;;;;3.33;1.33;;;2.00;99.90;;;;;;4915370;29;20411;-92
2022/03/17 10:29:27;;;;;;;3.65;1.50;;;2.10;99.90;;;;;;4914626;29;20902;-93
2022/03/17 10:32:04;;;;;;;2.92;1.30;;;2.10;99.90;;;;;;4917825;29;20436;-92
2022/03/17 10:34:35;;;;;;;4.65;1.58;;;2.10;99.90;;;;;;4917957;29;20403;-91
2022/03/17 10:37:12;;;;;;;2.47;1.40;;;2.10;99.90;;;;;;4911014;29;20776;-93
2022/03/17 10:39:44;;;;;;;2.70;1.30;;;2.20;99.90;;;;;;4933677;29;20395;-92
2022/03/17 10:42:27;;;;;;;2.35;1.30;;;2.30;99.90;;;;;;4902874;29;20395;-92
2022/03/17 10:44:57;;;;;;;3.10;1.23;;;2.40;99.90;;;;;;4921329;29;20402;-91
2022/03/17 10:47:31;;;;;;;2.80;1.40;;;2.40;99.90;;;;;;4936534;29;20461;-92
2022/03/17 10:50:11;;;;;;;3.92;1.40;;;2.40;99.90;;;;;;4921263;29;20877;-92
2022/03/17 10:53:00;;;;;;;2.88;1.20;;;2.50;99.90;;;;;;4937036;29;20401;-92
2022/03/17 10:55:30;;;;;;;2.95;1.30;;;2.70;99.90;;;;;;4936985;29;20496;-91
2022/03/17 10:58:15;;;;;;;3.65;1.20;;;2.70;99.90;;;;;;4921218;29;20535;-92
2022/03/17 11:00:55;;;;;;;4.43;1.50;;;2.80;99.90;;;;;;4925348;29;20477;-92
2022/03/17 11:03:24;;;;;;;2.47;1.23;;;2.80;99.90;;;;;;4912620;29;20423;-91
2022/03/17 11:05:53;;;;;;;3.47;1.47;;;2.90;99.90;;;;;;4934716;29;20401;-91
2022/03/17 11:08:21;;;;;;;2.97;1.50;;;2.90;99.90;;;;;;4944444;29;20477;-93
2022/03/17 11:10:52;;;;;;;3.72;1.40;;;2.90;99.90;;;;;;4937193;29;20401;-92
2022/03/17 11:13:20;;;;;;;2.83;1.40;;;3.00;99.90;;;;;;4937873;29;20461;-92
2022/03/17 11:16:01;;;;;;;2.28;1.30;;;3.20;99.60;;;;;;4939322;29;20881;-93
2022/03/17 11:18:35;;;;;;;2.70;1.20;;;3.30;98.80;;;;;;4920563;29;20416;-93
2022/03/17 11:21:16;;;;;;;3.10;1.38;;;3.30;99.00;;;;;;4927994;29;20765;-91
2022/03/17 11:23:56;;;;;;;2.47;1.20;;;3.30;98.80;;;;;;4926751;29;20403;-89
2022/03/17 11:26:38;;;;;;;2.45;1.30;;;3.40;99.70;;;;;;4930032;29;20465;-89
2022/03/17 11:29:17;;;;;;;2.17;1.30;;;3.40;99.90;;;;;;4937465;29;20428;-91
2022/03/17 11:31:57;;;;;;;3.00;1.40;;;3.40;99.60;;;;;;4929047;29;20417;-93
2022/03/17 11:34:46;;;;;;;3.72;1.33;;;3.50;99.90;;;;;;4932521;29;20418;-93
2022/03/17 11:37:22;;;;;;;2.88;1.30;;;3.30;99.90;;;;;;4927467;29;20838;-91
2022/03/17 11:40:00;;;;;;;2.13;1.10;;;3.60;96.30;;;;;;4922280;29;20428;-93
2022/03/17 11:42:32;;;;;;;2.88;1.25;;;3.60;99.80;;;;;;4934029;29;20423;-92
2022/03/17 11:45:14;;;;;;;2.15;1.05;;;3.70;98.50;;;;;;4903421;29;20431;-91
2022/03/17 11:47:53;;;;;;;2.00;1.20;;;3.80;98.40;;;;;;4930874;29;20442;-93
2022/03/17 11:50:38;;;;;;;2.25;1.08;;;3.90;98.90;;;;;;4936782;29;20492;-92
2022/03/17 11:53:11;;;;;;;2.17;1.20;;;4.10;95.60;;;;;;4951751;29;20859;-93
2022/03/17 11:55:42;;;;;;;2.42;1.13;;;4.20;95.80;;;;;;4935975;29;20897;-94
2022/03/17 11:58:31;;;;;;;3.17;1.30;;;4.20;97.30;;;;;;4935869;29;20420;-92
2022/03/17 12:01:11;;;;;;;2.92;1.23;;;4.30;96.80;;;;;;4936211;29;21023;-93
2022/03/17 12:03:50;;;;;;;2.55;1.30;;;4.40;97.20;;;;;;4919894;29;20417;-92
2022/03/17 12:06:20;;;;;;;3.70;1.30;;;4.60;97.10;;;;;;4920048;29;20772;-92
2022/03/17 12:08:51;;;;;;;1.60;1.00;;;4.70;95.40;;;;;;4935840;29;20480;-92
2022/03/17 12:11:27;;;;;;;2.88;1.25;;;4.60;98.00;;;;;;4919582;29;20522;-94
2022/03/17 12:14:19;;;;;;;1.70;1.00;;;4.60;98.30;;;;;;4919949;29;20469;-91
2022/03/17 12:17:08;;;;;;;2.33;1.15;;;4.60;97.70;;;;;;4919998;29;20413;-94
2022/03/17 12:19:37;;;;;;;2.40;1.13;;;4.70;96.70;;;;;;4935476;29;20421;-92
2022/03/17 12:22:19;;;;;;;2.85;1.40;;;4.60;98.60;;;;;;4919405;29;20413;-92
2022/03/17 12:25:14;;;;;;;2.38;1.25;;;4.70;97.20;;;;;;4935040;29;20497;-91
2022/03/17 12:27:43;;;;;;;3.50;1.30;;;5.00;95.50;;;;;;4930933;29;20422;-93
2022/03/17 12:30:13;;;;;;;2.78;1.30;;;5.10;96.20;;;;;;4934371;29;20410;-92
2022/03/17 12:32:51;;;;;;;2.40;1.10;;;5.20;96.20;;;;;;4919277;29;20417;-93
2022/03/17 12:35:22;;;;;;;2.15;1.13;;;5.20;96.00;;;;;;4934936;29;20508;-92
2022/03/17 12:37:49;;;;;;;4.40;1.40;;;5.20;96.30;;;;;;4919353;29;20421;-93
2022/03/17 12:40:20;;;;;;;3.40;1.38;;;5.30;96.50;;;;;;4931527;29;20414;-92
2022/03/17 12:42:53;;;;;;;2.40;1.20;;;5.30;95.90;;;;;;4916099;29;20422;-94
2022/03/17 12:45:24;;;;;;;2.33;1.13;;;5.40;97.20;;;;;;4912662;29;20398;-92
2022/03/17 12:48:02;;;;;;;3.67;1.40;;;5.20;97.60;;;;;;4933767;29;20869;-90
2022/03/17 12:50:30;;;;;;;3.30;1.60;;;5.30;96.50;;;;;;4910432;29;20414;-92
2022/03/17 12:52:57;;;;;;;3.83;1.20;;;5.50;95.40;;;;;;4934177;29;20414;-93
2022/03/17 12:55:27;;;;;;;2.15;1.13;;;5.50;95.50;;;;;;4947973;29;20426;-90
2022/03/17 12:57:56;;;;;;;4.00;1.48;;;5.60;95.30;;;;;;4912053;29;20410;-92
2022/03/17 13:00:23;;;;;;;4.50;1.37;;;5.60;95.00;;;;;;4918860;29;20472;-91
2022/03/17 13:02:56;;;;;;;2.28;1.20;;;5.50;95.90;;;;;;4918493;29;20493;-91
2022/03/17 13:08:15;;;;;;;2.80;1.30;;;5.60;96.00;;;;;;4934260;29;20402;-90
2022/03/17 13:16:17;;;;;;;2.22;1.40;;;5.90;94.00;;;;;;4930918;29;20481;-91
2022/03/17 13:18:49;;;;;;;2.35;1.20;;;5.90;94.30;;;;;;4931050;29;20396;-91
2022/03/17 13:21:19;;;;;;;2.42;1.50;;;6.00;94.60;;;;;;4899345;29;20459;-91
2022/03/17 13:23:48;;;;;;;3.42;1.20;;;6.00;94.20;;;;;;4922536;29;20399;-91
2022/03/17 13:26:25;;;;;;;3.15;1.30;;;5.90;94.30;;;;;;4914704;29;20903;-91
2022/03/17 13:29:04;;;;;;;2.63;1.40;;;5.90;94.20;;;;;;4915076;29;20423;-92
2022/03/17 13:31:40;;;;;;;2.70;1.38;;;6.00;93.10;;;;;;4914913;29;20415;-91
2022/03/17 13:34:08;;;;;;;3.60;1.63;;;6.00;95.20;;;;;;4913279;29;20496;-91
2022/03/17 13:36:55;;;;;;;2.60;1.30;;;6.00;94.70;;;;;;4918143;29;20413;-90